sensor_id;sensor_type;location;lat;lon;timestamp;pressure;altitude;pressure_sealevel;temperature;humidity
72118;BME280;59992;47.490;8.736;2023-04-12T00:02:23;96198.52;;;7.39;88.47
72118;BME280;59992;47.490;8.736;2023-04-12T00:05:15;96189.35;;;7.37;88.30
72118;BME280;59992;47.490;8.736;2023-04-12T00:08:05;96183.12;;;7.34;87.90
72118;BME280;59992;47.490;8.736;2023-04-12T00:10:58;96179.49;;;7.33;88.40
72118;BME280;59992;47.490;8.736;2023-04-12T00:13:48;96177.15;;;7.33;89.19
72118;BME280;59992;47.490;8.736;2023-04-12T00:16:39;96168.11;;;7.29;88.79
72118;BME280;59992;47.490;8.736;2023-04-12T00:19:29;96171.64;;;7.36;89.75
72118;BME280;59992;47.490;8.736;2023-04-12T00:22:19;96157.80;;;7.37;88.13
72118;BME280;59992;47.490;8.736;2023-04-12T00:25:10;96153.58;;;7.37;87.61
72118;BME280;59992;47.490;8.736;2023-04-12T00:28:00;96148.56;;;7.36;87.79
72118;BME280;59992;47.490;8.736;2023-04-12T00:30:50;96142.70;;;7.35;87.05
72118;BME280;59992;47.490;8.736;2023-04-12T00:33:40;96125.16;;;7.36;87.38
72118;BME280;59992;47.490;8.736;2023-04-12T00:36:31;96112.27;;;7.36;86.72
72118;BME280;59992;47.490;8.736;2023-04-12T00:39:21;96103.21;;;7.35;87.10
72118;BME280;59992;47.490;8.736;2023-04-12T00:42:11;96106.45;;;7.34;88.72
72118;BME280;59992;47.490;8.736;2023-04-12T00:45:03;96097.60;;;7.36;89.05
72118;BME280;59992;47.490;8.736;2023-04-12T00:47:55;96092.29;;;7.38;90.12
72118;BME280;59992;47.490;8.736;2023-04-12T00:50:46;96093.54;;;7.42;90.61
72118;BME280;59992;47.490;8.736;2023-04-12T00:53:36;96083.20;;;7.44;92.06
72118;BME280;59992;47.490;8.736;2023-04-12T00:56:27;96070.60;;;7.49;89.20
72118;BME280;59992;47.490;8.736;2023-04-12T00:59:20;96062.69;;;7.52;88.71
72118;BME280;59992;47.490;8.736;2023-04-12T01:02:10;96061.23;;;7.52;91.50
72118;BME280;59992;47.490;8.736;2023-04-12T01:05:02;96063.71;;;7.51;92.26
72118;BME280;59992;47.490;8.736;2023-04-12T01:08:01;96048.26;;;7.46;92.97
72118;BME280;59992;47.490;8.736;2023-04-12T01:11:04;96057.58;;;7.53;92.82
72118;BME280;59992;47.490;8.736;2023-04-12T01:14:04;96051.02;;;7.54;92.97
72118;BME280;59992;47.490;8.736;2023-04-12T01:16:58;96044.14;;;7.51;92.98
72118;BME280;59992;47.490;8.736;2023-04-12T01:19:55;96031.94;;;7.52;93.58
72118;BME280;59992;47.490;8.736;2023-04-12T01:22:58;96033.30;;;7.53;93.53
72118;BME280;59992;47.490;8.736;2023-04-12T01:26:00;96029.00;;;7.52;93.89
72118;BME280;59992;47.490;8.736;2023-04-12T01:28:57;96022.91;;;7.53;93.18
72118;BME280;59992;47.490;8.736;2023-04-12T01:31:53;96025.39;;;7.53;91.93
72118;BME280;59992;47.490;8.736;2023-04-12T01:34:47;96030.66;;;7.48;92.73
72118;BME280;59992;47.490;8.736;2023-04-12T01:37:38;96040.67;;;7.48;93.80
72118;BME280;59992;47.490;8.736;2023-04-12T01:40:30;96039.86;;;7.48;93.50
72118;BME280;59992;47.490;8.736;2023-04-12T01:43:21;96022.83;;;7.48;92.66
72118;BME280;59992;47.490;8.736;2023-04-12T01:46:15;96003.23;;;7.47;91.15
72118;BME280;59992;47.490;8.736;2023-04-12T01:49:05;95991.28;;;7.44;90.03
72118;BME280;59992;47.490;8.736;2023-04-12T01:52:02;95993.02;;;7.39;90.02
72118;BME280;59992;47.490;8.736;2023-04-12T01:54:57;96005.07;;;7.35;93.50
72118;BME280;59992;47.490;8.736;2023-04-12T01:57:52;95990.84;;;7.36;93.65
72118;BME280;59992;47.490;8.736;2023-04-12T02:00:44;95965.65;;;7.34;93.48
72118;BME280;59992;47.490;8.736;2023-04-12T02:03:36;95942.58;;;7.32;93.69
72118;BME280;59992;47.490;8.736;2023-04-12T02:06:27;95951.00;;;7.31;92.77
72118;BME280;59992;47.490;8.736;2023-04-12T02:09:18;95953.30;;;7.24;93.77
72118;BME280;59992;47.490;8.736;2023-04-12T02:12:10;95967.96;;;7.31;93.84
72118;BME280;59992;47.490;8.736;2023-04-12T02:15:01;95962.45;;;7.32;95.06
72118;BME280;59992;47.490;8.736;2023-04-12T02:17:52;95946.42;;;7.22;94.73
72118;BME280;59992;47.490;8.736;2023-04-12T02:20:43;95961.73;;;7.29;93.79
72118;BME280;59992;47.490;8.736;2023-04-12T02:23:33;95967.33;;;7.29;92.39
72118;BME280;59992;47.490;8.736;2023-04-12T02:26:24;95966.66;;;7.30;92.34
72118;BME280;59992;47.490;8.736;2023-04-12T02:29:14;95953.71;;;7.30;91.08
72118;BME280;59992;47.490;8.736;2023-04-12T02:32:05;95954.63;;;7.31;90.44
72118;BME280;59992;47.490;8.736;2023-04-12T02:34:55;95957.66;;;7.33;91.51
72118;BME280;59992;47.490;8.736;2023-04-12T02:37:47;95949.18;;;7.35;92.28
72118;BME280;59992;47.490;8.736;2023-04-12T02:40:40;95919.20;;;7.36;91.82
72118;BME280;59992;47.490;8.736;2023-04-12T02:43:31;95897.48;;;7.34;90.96
72118;BME280;59992;47.490;8.736;2023-04-12T02:46:23;95925.30;;;7.30;90.67
72118;BME280;59992;47.490;8.736;2023-04-12T02:49:13;95960.60;;;7.28;93.48
72118;BME280;59992;47.490;8.736;2023-04-12T02:52:04;95964.67;;;7.28;92.73
72118;BME280;59992;47.490;8.736;2023-04-12T02:54:55;95954.59;;;7.29;93.04
72118;BME280;59992;47.490;8.736;2023-04-12T02:57:46;95946.70;;;7.30;93.92
72118;BME280;59992;47.490;8.736;2023-04-12T03:00:36;95919.33;;;7.33;92.33
72118;BME280;59992;47.490;8.736;2023-04-12T03:03:27;95902.80;;;7.32;92.81
72118;BME280;59992;47.490;8.736;2023-04-12T03:06:19;95899.73;;;7.33;91.28
72118;BME280;59992;47.490;8.736;2023-04-12T03:09:10;95933.85;;;7.32;93.59
72118;BME280;59992;47.490;8.736;2023-04-12T03:12:02;95929.34;;;7.33;93.97
72118;BME280;59992;47.490;8.736;2023-04-12T03:14:52;95920.33;;;7.34;93.23
72118;BME280;59992;47.490;8.736;2023-04-12T03:17:43;95915.20;;;7.34;92.47
72118;BME280;59992;47.490;8.736;2023-04-12T03:20:34;95906.19;;;7.32;91.94
72118;BME280;59992;47.490;8.736;2023-04-12T03:23:24;95906.64;;;7.31;92.94
72118;BME280;59992;47.490;8.736;2023-04-12T03:26:14;95895.56;;;7.29;93.96
72118;BME280;59992;47.490;8.736;2023-04-12T03:29:08;95888.02;;;7.30;93.82
72118;BME280;59992;47.490;8.736;2023-04-12T03:31:58;95872.96;;;7.30;92.95
72118;BME280;59992;47.490;8.736;2023-04-12T03:34:48;95871.70;;;7.31;91.48
72118;BME280;59992;47.490;8.736;2023-04-12T03:37:41;95870.77;;;7.30;90.36
72118;BME280;59992;47.490;8.736;2023-04-12T03:40:32;95876.13;;;7.31;90.15
72118;BME280;59992;47.490;8.736;2023-04-12T03:43:22;95867.98;;;7.30;91.89
72118;BME280;59992;47.490;8.736;2023-04-12T03:46:12;95860.98;;;7.30;90.18
72118;BME280;59992;47.490;8.736;2023-04-12T03:49:03;95870.61;;;7.30;91.68
72118;BME280;59992;47.490;8.736;2023-04-12T03:51:53;95859.98;;;7.29;93.29
72118;BME280;59992;47.490;8.736;2023-04-12T03:54:44;95846.73;;;7.28;94.04
72118;BME280;59992;47.490;8.736;2023-04-12T03:57:35;95824.58;;;7.28;92.41
72118;BME280;59992;47.490;8.736;2023-04-12T04:00:25;95814.09;;;7.26;90.90
72118;BME280;59992;47.490;8.736;2023-04-12T04:03:15;95806.23;;;7.24;91.45
72118;BME280;59992;47.490;8.736;2023-04-12T04:06:06;95787.39;;;7.23;90.37
72118;BME280;59992;47.490;8.736;2023-04-12T04:08:57;95806.56;;;7.22;91.20
72118;BME280;59992;47.490;8.736;2023-04-12T04:11:47;95817.16;;;7.20;94.34
72118;BME280;59992;47.490;8.736;2023-04-12T04:14:38;95827.98;;;7.19;94.76
72118;BME280;59992;47.490;8.736;2023-04-12T04:17:28;95833.56;;;7.19;94.86
72118;BME280;59992;47.490;8.736;2023-04-12T04:20:19;95821.91;;;7.20;95.20
72118;BME280;59992;47.490;8.736;2023-04-12T04:23:09;95805.38;;;7.23;94.28
72118;BME280;59992;47.490;8.736;2023-04-12T04:26:00;95812.40;;;7.24;93.83
72118;BME280;59992;47.490;8.736;2023-04-12T04:28:53;95815.12;;;7.25;94.83
72118;BME280;59992;47.490;8.736;2023-04-12T04:31:43;95810.28;;;7.24;94.32
72118;BME280;59992;47.490;8.736;2023-04-12T04:34:34;95821.39;;;7.25;95.18
72118;BME280;59992;47.490;8.736;2023-04-12T04:37:25;95821.79;;;7.27;95.50
72118;BME280;59992;47.490;8.736;2023-04-12T04:40:15;95823.54;;;7.29;94.75
72118;BME280;59992;47.490;8.736;2023-04-12T04:43:06;95822.42;;;7.30;94.40
72118;BME280;59992;47.490;8.736;2023-04-12T04:45:58;95813.47;;;7.30;95.26
72118;BME280;59992;47.490;8.736;2023-04-12T04:48:48;95813.34;;;7.32;95.18
72118;BME280;59992;47.490;8.736;2023-04-12T04:51:39;95811.98;;;7.32;94.86
72118;BME280;59992;47.490;8.736;2023-04-12T04:54:29;95808.23;;;7.33;94.94
72118;BME280;59992;47.490;8.736;2023-04-12T04:57:21;95806.20;;;7.27;94.43
72118;BME280;59992;47.490;8.736;2023-04-12T05:00:12;95794.94;;;7.30;93.77
72118;BME280;59992;47.490;8.736;2023-04-12T05:03:04;95792.42;;;7.29;92.91
72118;BME280;59992;47.490;8.736;2023-04-12T05:05:54;95780.19;;;7.25;92.97
72118;BME280;59992;47.490;8.736;2023-04-12T05:08:44;95771.18;;;7.22;93.22
72118;BME280;59992;47.490;8.736;2023-04-12T05:11:35;95764.52;;;7.20;93.66
72118;BME280;59992;47.490;8.736;2023-04-12T05:14:25;95761.84;;;7.21;94.37
72118;BME280;59992;47.490;8.736;2023-04-12T05:17:15;95766.38;;;7.23;93.22
72118;BME280;59992;47.490;8.736;2023-04-12T05:20:08;95763.77;;;7.25;92.31
72118;BME280;59992;47.490;8.736;2023-04-12T05:22:59;95766.70;;;7.31;94.41
72118;BME280;59992;47.490;8.736;2023-04-12T05:25:50;95760.53;;;7.38;95.17
72118;BME280;59992;47.490;8.736;2023-04-12T05:28:40;95752.14;;;7.43;94.76
72118;BME280;59992;47.490;8.736;2023-04-12T05:31:30;95756.10;;;7.45;94.50
72118;BME280;59992;47.490;8.736;2023-04-12T05:34:20;95759.02;;;7.50;95.32
72118;BME280;59992;47.490;8.736;2023-04-12T05:37:11;95760.36;;;7.55;96.48
72118;BME280;59992;47.490;8.736;2023-04-12T05:40:02;95756.03;;;7.59;96.41
72118;BME280;59992;47.490;8.736;2023-04-12T05:42:54;95746.72;;;7.62;96.00
72118;BME280;59992;47.490;8.736;2023-04-12T05:45:45;95741.70;;;7.65;95.89
72118;BME280;59992;47.490;8.736;2023-04-12T05:48:35;95730.58;;;7.67;95.94
72118;BME280;59992;47.490;8.736;2023-04-12T05:51:26;95730.92;;;7.70;96.41
72118;BME280;59992;47.490;8.736;2023-04-12T05:54:16;95720.23;;;7.72;96.10
72118;BME280;59992;47.490;8.736;2023-04-12T05:57:08;95718.23;;;7.76;96.35
72118;BME280;59992;47.490;8.736;2023-04-12T06:00:00;95719.57;;;7.80;96.44
72118;BME280;59992;47.490;8.736;2023-04-12T06:02:54;95718.02;;;7.84;96.55
72118;BME280;59992;47.490;8.736;2023-04-12T06:05:45;95719.99;;;7.87;96.42
72118;BME280;59992;47.490;8.736;2023-04-12T06:08:35;95703.06;;;7.89;95.66
72118;BME280;59992;47.490;8.736;2023-04-12T06:11:27;95693.14;;;7.92;95.95
72118;BME280;59992;47.490;8.736;2023-04-12T06:14:17;95673.80;;;7.96;95.37
72118;BME280;59992;47.490;8.736;2023-04-12T06:17:08;95669.83;;;8.00;94.29
72118;BME280;59992;47.490;8.736;2023-04-12T06:19:58;95668.21;;;8.05;94.88
72118;BME280;59992;47.490;8.736;2023-04-12T06:22:48;95662.98;;;8.11;93.82
72118;BME280;59992;47.490;8.736;2023-04-12T06:25:38;95659.11;;;8.17;94.61
72118;BME280;59992;47.490;8.736;2023-04-12T06:28:29;95649.43;;;8.23;95.22
72118;BME280;59992;47.490;8.736;2023-04-12T06:31:20;95645.11;;;8.28;95.23
72118;BME280;59992;47.490;8.736;2023-04-12T06:34:10;95647.89;;;8.35;95.61
72118;BME280;59992;47.490;8.736;2023-04-12T06:37:01;95648.74;;;8.42;95.47
72118;BME280;59992;47.490;8.736;2023-04-12T06:39:51;95645.85;;;8.47;95.38
72118;BME280;59992;47.490;8.736;2023-04-12T06:42:41;95641.27;;;8.51;94.96
72118;BME280;59992;47.490;8.736;2023-04-12T06:45:31;95637.77;;;8.56;94.85
72118;BME280;59992;47.490;8.736;2023-04-12T06:48:22;95639.95;;;8.61;95.53
72118;BME280;59992;47.490;8.736;2023-04-12T06:51:12;95638.27;;;8.69;94.59
72118;BME280;59992;47.490;8.736;2023-04-12T06:54:03;95641.03;;;8.77;94.70
72118;BME280;59992;47.490;8.736;2023-04-12T06:56:53;95639.12;;;8.88;93.87
72118;BME280;59992;47.490;8.736;2023-04-12T06:59:45;95626.22;;;8.92;93.82
72118;BME280;59992;47.490;8.736;2023-04-12T07:02:35;95622.21;;;9.10;93.09
72118;BME280;59992;47.490;8.736;2023-04-12T07:05:26;95620.38;;;9.24;92.29
72118;BME280;59992;47.490;8.736;2023-04-12T07:08:17;95617.08;;;9.43;91.84
72118;BME280;59992;47.490;8.736;2023-04-12T07:11:08;95617.65;;;9.66;90.73
72118;BME280;59992;47.490;8.736;2023-04-12T07:13:58;95599.21;;;9.88;88.04
72118;BME280;59992;47.490;8.736;2023-04-12T07:16:48;95597.77;;;10.06;86.50
72118;BME280;59992;47.490;8.736;2023-04-12T07:19:39;95596.34;;;10.21;85.43
72118;BME280;59992;47.490;8.736;2023-04-12T07:22:30;95591.98;;;10.50;84.63
72118;BME280;59992;47.490;8.736;2023-04-12T07:25:20;95592.20;;;10.72;83.24
72118;BME280;59992;47.490;8.736;2023-04-12T07:28:11;95581.30;;;10.90;83.20
72118;BME280;59992;47.490;8.736;2023-04-12T07:31:03;95576.05;;;11.12;81.32
72118;BME280;59992;47.490;8.736;2023-04-12T07:33:53;95577.20;;;11.23;78.56
72118;BME280;59992;47.490;8.736;2023-04-12T07:36:44;95577.80;;;11.28;78.41
72118;BME280;59992;47.490;8.736;2023-04-12T07:39:34;95576.12;;;11.41;79.47
72118;BME280;59992;47.490;8.736;2023-04-12T07:42:27;95571.52;;;11.60;77.90
72118;BME280;59992;47.490;8.736;2023-04-12T07:45:17;95565.36;;;11.95;78.37
72118;BME280;59992;47.490;8.736;2023-04-12T07:48:08;95571.53;;;12.48;78.75
72118;BME280;59992;47.490;8.736;2023-04-12T07:50:59;95559.17;;;12.92;76.78
72118;BME280;59992;47.490;8.736;2023-04-12T07:53:51;95557.20;;;13.18;74.13
72118;BME280;59992;47.490;8.736;2023-04-12T07:56:41;95562.08;;;13.40;71.62
72118;BME280;59992;47.490;8.736;2023-04-12T07:59:45;95560.79;;;13.49;71.47
72118;BME280;59992;47.490;8.736;2023-04-12T08:02:36;95561.13;;;13.36;70.05
72118;BME280;59992;47.490;8.736;2023-04-12T08:05:27;95561.88;;;13.53;71.75
72118;BME280;59992;47.490;8.736;2023-04-12T08:08:18;95554.21;;;13.62;71.68
72118;BME280;59992;47.490;8.736;2023-04-12T08:11:08;95555.55;;;13.79;70.58
72118;BME280;59992;47.490;8.736;2023-04-12T08:13:58;95553.54;;;13.94;70.47
72118;BME280;59992;47.490;8.736;2023-04-12T08:16:49;95546.01;;;14.26;68.85
72118;BME280;59992;47.490;8.736;2023-04-12T08:19:39;95553.84;;;14.53;68.49
72118;BME280;59992;47.490;8.736;2023-04-12T08:22:30;95549.82;;;14.79;69.43
72118;BME280;59992;47.490;8.736;2023-04-12T08:25:20;95559.70;;;14.93;66.26
72118;BME280;59992;47.490;8.736;2023-04-12T08:28:11;95558.75;;;15.08;67.83
72118;BME280;59992;47.490;8.736;2023-04-12T08:31:02;95552.86;;;15.10;66.08
72118;BME280;59992;47.490;8.736;2023-04-12T08:33:52;95548.56;;;15.11;66.90
72118;BME280;59992;47.490;8.736;2023-04-12T08:36:42;95555.52;;;15.17;66.23
72118;BME280;59992;47.490;8.736;2023-04-12T08:39:33;95544.45;;;15.25;64.86
72118;BME280;59992;47.490;8.736;2023-04-12T08:42:23;95544.13;;;15.37;65.08
72118;BME280;59992;47.490;8.736;2023-04-12T08:45:14;95539.81;;;15.31;65.53
72118;BME280;59992;47.490;8.736;2023-04-12T08:48:05;95528.33;;;15.58;63.60
72118;BME280;59992;47.490;8.736;2023-04-12T08:50:56;95532.21;;;15.84;63.33
72118;BME280;59992;47.490;8.736;2023-04-12T08:53:46;95513.44;;;15.96;62.85
72118;BME280;59992;47.490;8.736;2023-04-12T08:56:36;95511.39;;;16.07;64.20
72118;BME280;59992;47.490;8.736;2023-04-12T08:59:29;95517.16;;;16.23;62.08
72118;BME280;59992;47.490;8.736;2023-04-12T09:02:20;95512.48;;;16.22;58.45
72118;BME280;59992;47.490;8.736;2023-04-12T09:05:10;95506.52;;;16.48;59.15
72118;BME280;59992;47.490;8.736;2023-04-12T09:08:02;95508.66;;;16.62;59.39
72118;BME280;59992;47.490;8.736;2023-04-12T09:10:52;95508.83;;;16.64;58.46
72118;BME280;59992;47.490;8.736;2023-04-12T09:13:43;95500.95;;;17.00;58.07
72118;BME280;59992;47.490;8.736;2023-04-12T09:16:37;95506.82;;;16.79;56.60
72118;BME280;59992;47.490;8.736;2023-04-12T09:19:34;95497.30;;;16.96;57.35
72118;BME280;59992;47.490;8.736;2023-04-12T09:22:35;95497.27;;;16.87;56.33
72118;BME280;59992;47.490;8.736;2023-04-12T09:25:41;95485.83;;;16.93;56.47
72118;BME280;59992;47.490;8.736;2023-04-12T09:28:33;95493.31;;;16.83;56.65
72118;BME280;59992;47.490;8.736;2023-04-12T09:31:23;95487.91;;;16.98;55.86
72118;BME280;59992;47.490;8.736;2023-04-12T09:34:14;95482.97;;;16.94;55.85
72118;BME280;59992;47.490;8.736;2023-04-12T09:37:14;95485.95;;;17.00;56.23
72118;BME280;59992;47.490;8.736;2023-04-12T09:40:06;95481.70;;;17.19;55.33
72118;BME280;59992;47.490;8.736;2023-04-12T09:42:57;95483.07;;;17.22;54.06
72118;BME280;59992;47.490;8.736;2023-04-12T09:45:47;95485.73;;;17.25;53.85
72118;BME280;59992;47.490;8.736;2023-04-12T09:48:38;95486.21;;;17.11;53.16
72118;BME280;59992;47.490;8.736;2023-04-12T09:51:30;95486.31;;;17.15;52.89
72118;BME280;59992;47.490;8.736;2023-04-12T09:54:22;95471.71;;;17.26;52.79
72118;BME280;59992;47.490;8.736;2023-04-12T09:57:14;95478.71;;;17.37;52.24
72118;BME280;59992;47.490;8.736;2023-04-12T10:00:08;95465.17;;;17.51;50.70
72118;BME280;59992;47.490;8.736;2023-04-12T10:03:02;95472.20;;;17.55;50.82
72118;BME280;59992;47.490;8.736;2023-04-12T10:05:53;95463.33;;;17.61;51.58
72118;BME280;59992;47.490;8.736;2023-04-12T10:08:43;95463.79;;;17.64;51.05
72118;BME280;59992;47.490;8.736;2023-04-12T10:11:35;95464.46;;;17.62;50.68
72118;BME280;59992;47.490;8.736;2023-04-12T10:14:28;95473.02;;;17.50;50.99
72118;BME280;59992;47.490;8.736;2023-04-12T10:17:20;95471.97;;;17.30;49.59
72118;BME280;59992;47.490;8.736;2023-04-12T10:20:11;95481.91;;;17.30;51.07
72118;BME280;59992;47.490;8.736;2023-04-12T10:23:02;95479.71;;;17.30;51.21
72118;BME280;59992;47.490;8.736;2023-04-12T10:25:55;95474.14;;;17.06;50.94
72118;BME280;59992;47.490;8.736;2023-04-12T10:28:46;95475.69;;;16.90;51.23
72118;BME280;59992;47.490;8.736;2023-04-12T10:31:58;95479.88;;;16.94;52.48
72118;BME280;59992;47.490;8.736;2023-04-12T10:35:09;95488.90;;;17.05;51.00
72118;BME280;59992;47.490;8.736;2023-04-12T10:38:00;95482.76;;;16.99;50.81
72118;BME280;59992;47.490;8.736;2023-04-12T10:41:14;95480.88;;;17.08;49.63
72118;BME280;59992;47.490;8.736;2023-04-12T10:44:24;95489.75;;;17.01;51.17
72118;BME280;59992;47.490;8.736;2023-04-12T10:47:15;95489.45;;;16.95;50.57
72118;BME280;59992;47.490;8.736;2023-04-12T10:50:25;95495.47;;;17.06;51.22
72118;BME280;59992;47.490;8.736;2023-04-12T10:53:25;95491.14;;;16.95;50.55
72118;BME280;59992;47.490;8.736;2023-04-12T10:56:36;95492.86;;;16.84;51.88
72118;BME280;59992;47.490;8.736;2023-04-12T10:59:53;95488.63;;;16.86;51.90
72118;BME280;59992;47.490;8.736;2023-04-12T11:03:04;95497.30;;;16.58;52.55
72118;BME280;59992;47.490;8.736;2023-04-12T11:06:00;95503.79;;;16.44;50.90
72118;BME280;59992;47.490;8.736;2023-04-12T11:08:50;95499.55;;;16.16;52.53
72118;BME280;59992;47.490;8.736;2023-04-12T11:11:44;95504.54;;;15.94;53.13
72118;BME280;59992;47.490;8.736;2023-04-12T11:14:36;95498.38;;;15.84;53.31
72118;BME280;59992;47.490;8.736;2023-04-12T11:17:27;95501.02;;;15.76;54.79
72118;BME280;59992;47.490;8.736;2023-04-12T11:20:17;95499.55;;;15.73;52.83
72118;BME280;59992;47.490;8.736;2023-04-12T11:23:09;95498.20;;;15.60;53.23
72118;BME280;59992;47.490;8.736;2023-04-12T11:26:00;95505.52;;;15.67;54.50
72118;BME280;59992;47.490;8.736;2023-04-12T11:28:52;95501.70;;;15.54;54.26
72118;BME280;59992;47.490;8.736;2023-04-12T11:31:43;95492.27;;;15.39;55.06
72118;BME280;59992;47.490;8.736;2023-04-12T11:34:34;95488.84;;;15.28;55.10
72118;BME280;59992;47.490;8.736;2023-04-12T11:37:25;95490.70;;;15.13;56.73
72118;BME280;59992;47.490;8.736;2023-04-12T11:40:16;95482.44;;;14.97;60.02
72118;BME280;59992;47.490;8.736;2023-04-12T11:43:06;95485.06;;;14.92;62.25
72118;BME280;59992;47.490;8.736;2023-04-12T11:45:58;95475.29;;;14.82;61.91
72118;BME280;59992;47.490;8.736;2023-04-12T11:48:48;95468.35;;;14.78;62.49
72118;BME280;59992;47.490;8.736;2023-04-12T11:51:39;95475.10;;;14.84;62.18
72118;BME280;59992;47.490;8.736;2023-04-12T11:54:29;95471.14;;;14.95;63.15
72118;BME280;59992;47.490;8.736;2023-04-12T11:57:21;95473.01;;;15.10;60.13
72118;BME280;59992;47.490;8.736;2023-04-12T12:00:13;95473.04;;;15.22;60.75
72118;BME280;59992;47.490;8.736;2023-04-12T12:03:03;95475.59;;;15.34;60.04
72118;BME280;59992;47.490;8.736;2023-04-12T12:05:54;95471.20;;;15.47;60.52
72118;BME280;59992;47.490;8.736;2023-04-12T12:08:44;95471.19;;;15.57;60.06
72118;BME280;59992;47.490;8.736;2023-04-12T12:11:35;95466.73;;;15.49;59.01
72118;BME280;59992;47.490;8.736;2023-04-12T12:14:25;95471.88;;;15.51;60.44
72118;BME280;59992;47.490;8.736;2023-04-12T12:17:17;95460.37;;;15.43;60.29
72118;BME280;59992;47.490;8.736;2023-04-12T12:20:19;95468.60;;;15.23;61.97
72118;BME280;59992;47.490;8.736;2023-04-12T12:23:25;95468.01;;;15.12;61.37
72118;BME280;59992;47.490;8.736;2023-04-12T12:26:21;95463.73;;;15.02;62.73
72118;BME280;59992;47.490;8.736;2023-04-12T12:29:17;95463.77;;;15.01;63.51
72118;BME280;59992;47.490;8.736;2023-04-12T12:32:13;95469.79;;;14.93;64.03
72118;BME280;59992;47.490;8.736;2023-04-12T12:35:06;95468.92;;;14.91;62.94
72118;BME280;59992;47.490;8.736;2023-04-12T12:37:57;95471.50;;;14.85;62.29
72118;BME280;59992;47.490;8.736;2023-04-12T12:40:48;95479.83;;;14.80;63.62
72118;BME280;59992;47.490;8.736;2023-04-12T12:43:44;95476.67;;;14.78;63.57
72118;BME280;59992;47.490;8.736;2023-04-12T12:46:35;95471.00;;;14.76;63.48
72118;BME280;59992;47.490;8.736;2023-04-12T12:49:25;95471.73;;;14.70;62.81
72118;BME280;59992;47.490;8.736;2023-04-12T12:52:15;95480.52;;;14.65;62.61
72118;BME280;59992;47.490;8.736;2023-04-12T12:55:08;95474.90;;;14.49;62.50
72118;BME280;59992;47.490;8.736;2023-04-12T12:57:59;95471.48;;;14.37;63.28
72118;BME280;59992;47.490;8.736;2023-04-12T13:00:49;95461.38;;;14.18;65.70
72118;BME280;59992;47.490;8.736;2023-04-12T13:03:39;95453.23;;;14.10;67.58
72118;BME280;59992;47.490;8.736;2023-04-12T13:06:30;95457.05;;;13.97;69.08
72118;BME280;59992;47.490;8.736;2023-04-12T13:09:20;95451.29;;;13.75;70.39
72118;BME280;59992;47.490;8.736;2023-04-12T13:12:11;95449.47;;;13.69;70.95
72118;BME280;59992;47.490;8.736;2023-04-12T13:15:04;95446.60;;;13.59;70.30
72118;BME280;59992;47.490;8.736;2023-04-12T13:17:54;95440.55;;;13.57;68.82
72118;BME280;59992;47.490;8.736;2023-04-12T13:20:45;95442.89;;;13.40;71.08
72118;BME280;59992;47.490;8.736;2023-04-12T13:23:36;95441.65;;;13.26;71.62
72118;BME280;59992;47.490;8.736;2023-04-12T13:26:26;95443.78;;;13.22;73.80
72118;BME280;59992;47.490;8.736;2023-04-12T13:29:16;95426.84;;;13.12;72.43
72118;BME280;59992;47.490;8.736;2023-04-12T13:32:07;95422.32;;;13.08;71.57
72118;BME280;59992;47.490;8.736;2023-04-12T13:34:58;95415.83;;;12.98;72.53
72118;BME280;59992;47.490;8.736;2023-04-12T13:37:48;95414.52;;;12.95;72.81
72118;BME280;59992;47.490;8.736;2023-04-12T13:40:38;95423.43;;;12.92;73.99
72118;BME280;59992;47.490;8.736;2023-04-12T13:43:29;95424.20;;;12.88;74.26
72118;BME280;59992;47.490;8.736;2023-04-12T13:46:20;95408.58;;;12.80;72.73
72118;BME280;59992;47.490;8.736;2023-04-12T13:49:10;95396.67;;;12.78;74.27
72118;BME280;59992;47.490;8.736;2023-04-12T13:52:00;95392.70;;;12.80;74.15
72118;BME280;59992;47.490;8.736;2023-04-12T13:54:51;95389.44;;;12.75;74.79
72118;BME280;59992;47.490;8.736;2023-04-12T13:57:41;95389.02;;;12.76;76.39
72118;BME280;59992;47.490;8.736;2023-04-12T14:00:31;95383.98;;;12.78;74.82
72118;BME280;59992;47.490;8.736;2023-04-12T14:03:22;95370.55;;;12.77;75.40
72118;BME280;59992;47.490;8.736;2023-04-12T14:06:12;95362.88;;;12.77;74.32
72118;BME280;59992;47.490;8.736;2023-04-12T14:09:03;95370.48;;;12.82;75.75
72118;BME280;59992;47.490;8.736;2023-04-12T14:11:55;95371.52;;;12.88;75.31
72118;BME280;59992;47.490;8.736;2023-04-12T14:14:45;95376.16;;;12.98;73.69
72118;BME280;59992;47.490;8.736;2023-04-12T14:17:36;95375.11;;;12.97;73.28
72118;BME280;59992;47.490;8.736;2023-04-12T14:20:26;95375.64;;;13.09;72.13
72118;BME280;59992;47.490;8.736;2023-04-12T14:23:17;95374.46;;;13.16;71.19
72118;BME280;59992;47.490;8.736;2023-04-12T14:26:10;95367.06;;;13.21;71.48
72118;BME280;59992;47.490;8.736;2023-04-12T14:29:04;95364.70;;;13.31;72.37
72118;BME280;59992;47.490;8.736;2023-04-12T14:31:54;95358.45;;;13.40;72.27
72118;BME280;59992;47.490;8.736;2023-04-12T14:34:44;95363.36;;;13.42;71.47
72118;BME280;59992;47.490;8.736;2023-04-12T14:37:35;95353.02;;;13.43;71.29
72118;BME280;59992;47.490;8.736;2023-04-12T14:40:26;95358.60;;;13.41;71.26
72118;BME280;59992;47.490;8.736;2023-04-12T14:43:16;95344.36;;;13.33;70.17
72118;BME280;59992;47.490;8.736;2023-04-12T14:46:07;95359.81;;;13.36;70.54
72118;BME280;59992;47.490;8.736;2023-04-12T14:48:57;95364.06;;;13.28;69.31
72118;BME280;59992;47.490;8.736;2023-04-12T14:51:48;95358.64;;;13.34;70.51
72118;BME280;59992;47.490;8.736;2023-04-12T14:54:39;95354.38;;;13.34;69.80
72118;BME280;59992;47.490;8.736;2023-04-12T14:57:29;95358.19;;;13.35;68.28
72118;BME280;59992;47.490;8.736;2023-04-12T15:00:21;95355.98;;;13.39;69.71
72118;BME280;59992;47.490;8.736;2023-04-12T15:03:11;95356.29;;;13.34;69.66
72118;BME280;59992;47.490;8.736;2023-04-12T15:06:02;95358.92;;;13.30;69.89
72118;BME280;59992;47.490;8.736;2023-04-12T15:08:52;95354.10;;;13.32;70.56
72118;BME280;59992;47.490;8.736;2023-04-12T15:11:43;95350.39;;;13.32;70.20
72118;BME280;59992;47.490;8.736;2023-04-12T15:14:34;95351.13;;;13.24;70.86
72118;BME280;59992;47.490;8.736;2023-04-12T15:17:24;95357.29;;;13.20;72.03